sensor_id;sensor_type;location;lat;lon;timestamp;temperature;humidity
18229;DHT22;9239;50.932;3.142;2024-02-04T00:01:56;11.30;99.90
18229;DHT22;9239;50.932;3.142;2024-02-04T00:04:24;11.40;99.90
18229;DHT22;9239;50.932;3.142;2024-02-04T00:06:51;11.30;99.90
18229;DHT22;9239;50.932;3.142;2024-02-04T00:09:18;11.30;99.90
18229;DHT22;9239;50.932;3.142;2024-02-04T00:11:45;11.30;99.90
18229;DHT22;9239;50.932;3.142;2024-02-04T00:14:12;11.30;99.90
18229;DHT22;9239;50.932;3.142;2024-02-04T00:16:39;11.30;99.90
18229;DHT22;9239;50.932;3.142;2024-02-04T00:19:06;11.30;99.90
18229;DHT22;9239;50.932;3.142;2024-02-04T00:21:35;11.30;99.90
18229;DHT22;9239;50.932;3.142;2024-02-04T00:24:02;11.30;99.90
18229;DHT22;9239;50.932;3.142;2024-02-04T00:26:29;11.30;99.90
18229;DHT22;9239;50.932;3.142;2024-02-04T00:28:56;11.20;99.90
18229;DHT22;9239;50.932;3.142;2024-02-04T00:31:24;11.20;99.90
18229;DHT22;9239;50.932;3.142;2024-02-04T00:33:50;11.10;99.90
18229;DHT22;9239;50.932;3.142;2024-02-04T00:36:17;11.00;99.90
18229;DHT22;9239;50.932;3.142;2024-02-04T00:38:47;11.00;99.90
18229;DHT22;9239;50.932;3.142;2024-02-04T00:41:14;11.00;99.90
18229;DHT22;9239;50.932;3.142;2024-02-04T00:43:41;11.00;99.90
18229;DHT22;9239;50.932;3.142;2024-02-04T00:46:08;11.00;99.90
18229;DHT22;9239;50.932;3.142;2024-02-04T00:48:36;11.00;99.90
18229;DHT22;9239;50.932;3.142;2024-02-04T00:51:03;11.00;99.90
18229;DHT22;9239;50.932;3.142;2024-02-04T00:53:30;11.00;99.90
18229;DHT22;9239;50.932;3.142;2024-02-04T00:56:01;11.00;99.90
18229;DHT22;9239;50.932;3.142;2024-02-04T00:58:28;11.00;99.90
18229;DHT22;9239;50.932;3.142;2024-02-04T01:00:55;11.00;99.90
18229;DHT22;9239;50.932;3.142;2024-02-04T01:03:22;11.00;99.90
18229;DHT22;9239;50.932;3.142;2024-02-04T01:05:49;11.00;99.90
18229;DHT22;9239;50.932;3.142;2024-02-04T01:08:16;11.00;99.90
18229;DHT22;9239;50.932;3.142;2024-02-04T01:10:43;11.10;99.90
18229;DHT22;9239;50.932;3.142;2024-02-04T01:13:11;11.00;99.90
18229;DHT22;9239;50.932;3.142;2024-02-04T01:15:38;11.10;99.90
18229;DHT22;9239;50.932;3.142;2024-02-04T01:18:05;11.10;99.90
18229;DHT22;9239;50.932;3.142;2024-02-04T01:20:32;11.00;99.90
18229;DHT22;9239;50.932;3.142;2024-02-04T01:22:59;11.10;99.90
18229;DHT22;9239;50.932;3.142;2024-02-04T01:25:26;11.10;99.90
18229;DHT22;9239;50.932;3.142;2024-02-04T01:27:53;11.10;99.90
18229;DHT22;9239;50.932;3.142;2024-02-04T01:30:21;11.10;99.90
18229;DHT22;9239;50.932;3.142;2024-02-04T01:32:48;11.10;99.90
18229;DHT22;9239;50.932;3.142;2024-02-04T01:35:15;11.10;99.90
18229;DHT22;9239;50.932;3.142;2024-02-04T01:37:42;11.10;99.90
18229;DHT22;9239;50.932;3.142;2024-02-04T01:40:10;11.10;99.90
18229;DHT22;9239;50.932;3.142;2024-02-04T01:42:37;11.10;99.90
18229;DHT22;9239;50.932;3.142;2024-02-04T01:45:05;11.10;99.90
18229;DHT22;9239;50.932;3.142;2024-02-04T01:47:34;11.10;99.90
18229;DHT22;9239;50.932;3.142;2024-02-04T01:50:03;11.10;99.90
18229;DHT22;9239;50.932;3.142;2024-02-04T01:52:31;11.10;99.90
18229;DHT22;9239;50.932;3.142;2024-02-04T01:54:59;11.10;99.90
18229;DHT22;9239;50.932;3.142;2024-02-04T01:57:27;11.20;99.90
18229;DHT22;9239;50.932;3.142;2024-02-04T01:59:55;11.20;99.90
18229;DHT22;9239;50.932;3.142;2024-02-04T02:02:24;11.20;99.90
18229;DHT22;9239;50.932;3.142;2024-02-04T02:04:53;11.10;99.90
18229;DHT22;9239;50.932;3.142;2024-02-04T02:07:20;11.10;99.90
18229;DHT22;9239;50.932;3.142;2024-02-04T02:09:48;11.10;99.90
18229;DHT22;9239;50.932;3.142;2024-02-04T02:12:18;11.10;99.90
18229;DHT22;9239;50.932;3.142;2024-02-04T02:14:50;11.10;99.90
18229;DHT22;9239;50.932;3.142;2024-02-04T02:17:24;11.00;99.90
18229;DHT22;9239;50.932;3.142;2024-02-04T02:19:59;11.00;99.90
18229;DHT22;9239;50.932;3.142;2024-02-04T02:22:35;11.00;99.90
18229;DHT22;9239;50.932;3.142;2024-02-04T02:25:07;11.00;99.90
18229;DHT22;9239;50.932;3.142;2024-02-04T02:27:34;11.00;99.90
18229;DHT22;9239;50.932;3.142;2024-02-04T02:30:01;11.00;99.90
18229;DHT22;9239;50.932;3.142;2024-02-04T02:32:29;11.00;99.90
18229;DHT22;9239;50.932;3.142;2024-02-04T02:34:56;10.90;99.90
18229;DHT22;9239;50.932;3.142;2024-02-04T02:37:27;10.90;99.90
18229;DHT22;9239;50.932;3.142;2024-02-04T02:39:59;10.90;99.90
18229;DHT22;9239;50.932;3.142;2024-02-04T02:42:32;10.90;99.90
18229;DHT22;9239;50.932;3.142;2024-02-04T02:45:02;10.90;99.90
18229;DHT22;9239;50.932;3.142;2024-02-04T02:47:29;10.90;99.90
18229;DHT22;9239;50.932;3.142;2024-02-04T02:49:57;10.90;99.90
18229;DHT22;9239;50.932;3.142;2024-02-04T02:52:24;10.90;99.90
18229;DHT22;9239;50.932;3.142;2024-02-04T02:54:51;10.80;99.90
18229;DHT22;9239;50.932;3.142;2024-02-04T02:57:18;10.80;99.90
18229;DHT22;9239;50.932;3.142;2024-02-04T02:59:46;10.80;99.90
18229;DHT22;9239;50.932;3.142;2024-02-04T03:02:13;10.80;99.90
18229;DHT22;9239;50.932;3.142;2024-02-04T03:04:40;10.90;99.90
18229;DHT22;9239;50.932;3.142;2024-02-04T03:07:07;10.90;99.90
18229;DHT22;9239;50.932;3.142;2024-02-04T03:09:34;10.90;99.90
18229;DHT22;9239;50.932;3.142;2024-02-04T03:12:01;10.90;99.90
18229;DHT22;9239;50.932;3.142;2024-02-04T03:14:28;10.90;99.90
18229;DHT22;9239;50.932;3.142;2024-02-04T03:16:57;10.90;99.90
18229;DHT22;9239;50.932;3.142;2024-02-04T03:19:24;10.90;99.90
18229;DHT22;9239;50.932;3.142;2024-02-04T03:21:51;10.90;99.90
18229;DHT22;9239;50.932;3.142;2024-02-04T03:24:18;10.90;99.90
18229;DHT22;9239;50.932;3.142;2024-02-04T03:26:45;11.00;99.90
18229;DHT22;9239;50.932;3.142;2024-02-04T03:29:12;11.00;99.90
18229;DHT22;9239;50.932;3.142;2024-02-04T03:31:38;10.90;99.90
18229;DHT22;9239;50.932;3.142;2024-02-04T03:34:07;10.90;99.90
18229;DHT22;9239;50.932;3.142;2024-02-04T03:36:36;10.90;99.90
18229;DHT22;9239;50.932;3.142;2024-02-04T03:39:03;10.90;99.90
18229;DHT22;9239;50.932;3.142;2024-02-04T03:41:30;10.90;99.90
18229;DHT22;9239;50.932;3.142;2024-02-04T03:43:57;10.90;99.90
18229;DHT22;9239;50.932;3.142;2024-02-04T03:46:24;10.90;99.90
18229;DHT22;9239;50.932;3.142;2024-02-04T03:48:51;10.90;99.90
18229;DHT22;9239;50.932;3.142;2024-02-04T03:51:19;10.90;99.90
18229;DHT22;9239;50.932;3.142;2024-02-04T03:53:47;10.90;99.90
18229;DHT22;9239;50.932;3.142;2024-02-04T03:56:14;10.90;99.90
18229;DHT22;9239;50.932;3.142;2024-02-04T03:58:41;11.00;99.90
18229;DHT22;9239;50.932;3.142;2024-02-04T04:01:10;11.00;99.90
18229;DHT22;9239;50.932;3.142;2024-02-04T04:03:39;11.00;99.90
18229;DHT22;9239;50.932;3.142;2024-02-04T04:06:06;11.00;99.90
18229;DHT22;9239;50.932;3.142;2024-02-04T04:08:34;11.00;99.90
18229;DHT22;9239;50.932;3.142;2024-02-04T04:11:01;11.00;99.90
18229;DHT22;9239;50.932;3.142;2024-02-04T04:13:29;11.00;99.90
18229;DHT22;9239;50.932;3.142;2024-02-04T04:15:57;11.00;99.90
18229;DHT22;9239;50.932;3.142;2024-02-04T04:18:24;11.00;99.90
18229;DHT22;9239;50.932;3.142;2024-02-04T04:20:51;11.00;99.90
18229;DHT22;9239;50.932;3.142;2024-02-04T04:23:18;11.00;99.90
18229;DHT22;9239;50.932;3.142;2024-02-04T04:25:46;11.00;99.90
18229;DHT22;9239;50.932;3.142;2024-02-04T04:28:13;11.00;99.90
18229;DHT22;9239;50.932;3.142;2024-02-04T04:30:40;11.00;99.90
18229;DHT22;9239;50.932;3.142;2024-02-04T04:33:07;11.00;99.90
18229;DHT22;9239;50.932;3.142;2024-02-04T04:35:34;11.00;99.90
18229;DHT22;9239;50.932;3.142;2024-02-04T04:38:01;11.10;99.90
18229;DHT22;9239;50.932;3.142;2024-02-04T04:40:28;11.10;99.90
18229;DHT22;9239;50.932;3.142;2024-02-04T04:42:57;11.10;99.90
18229;DHT22;9239;50.932;3.142;2024-02-04T04:45:24;11.10;99.90
18229;DHT22;9239;50.932;3.142;2024-02-04T04:47:51;11.10;99.90
18229;DHT22;9239;50.932;3.142;2024-02-04T04:50:18;11.10;99.90
18229;DHT22;9239;50.932;3.142;2024-02-04T04:52:45;11.20;99.90
18229;DHT22;9239;50.932;3.142;2024-02-04T04:55:12;11.20;99.90
18229;DHT22;9239;50.932;3.142;2024-02-04T04:57:39;11.10;99.90
18229;DHT22;9239;50.932;3.142;2024-02-04T05:00:08;11.20;99.90
18229;DHT22;9239;50.932;3.142;2024-02-04T05:02:36;11.20;99.90
18229;DHT22;9239;50.932;3.142;2024-02-04T05:05:04;11.20;99.90
18229;DHT22;9239;50.932;3.142;2024-02-04T05:07:31;11.10;99.90
18229;DHT22;9239;50.932;3.142;2024-02-04T05:09:58;11.20;99.90
18229;DHT22;9239;50.932;3.142;2024-02-04T05:12:25;11.20;99.90
18229;DHT22;9239;50.932;3.142;2024-02-04T05:14:52;11.20;99.90
18229;DHT22;9239;50.932;3.142;2024-02-04T05:17:20;11.20;99.90
18229;DHT22;9239;50.932;3.142;2024-02-04T05:19:47;11.20;99.90
18229;DHT22;9239;50.932;3.142;2024-02-04T05:22:14;11.20;99.90
18229;DHT22;9239;50.932;3.142;2024-02-04T05:24:41;11.20;99.90
18229;DHT22;9239;50.932;3.142;2024-02-04T05:27:09;11.20;99.90
18229;DHT22;9239;50.932;3.142;2024-02-04T05:29:36;11.20;99.90
18229;DHT22;9239;50.932;3.142;2024-02-04T05:32:03;11.20;99.90
18229;DHT22;9239;50.932;3.142;2024-02-04T05:34:31;11.20;99.90
18229;DHT22;9239;50.932;3.142;2024-02-04T05:36:59;11.20;99.90
18229;DHT22;9239;50.932;3.142;2024-02-04T05:39:26;11.20;99.90
18229;DHT22;9239;50.932;3.142;2024-02-04T05:41:53;11.20;99.90
18229;DHT22;9239;50.932;3.142;2024-02-04T05:44:20;11.20;99.90
18229;DHT22;9239;50.932;3.142;2024-02-04T05:46:47;11.20;99.90
18229;DHT22;9239;50.932;3.142;2024-02-04T05:49:14;11.20;99.90
18229;DHT22;9239;50.932;3.142;2024-02-04T05:51:42;11.20;99.90
18229;DHT22;9239;50.932;3.142;2024-02-04T05:54:09;11.20;99.90
18229;DHT22;9239;50.932;3.142;2024-02-04T05:56:36;11.20;99.90
18229;DHT22;9239;50.932;3.142;2024-02-04T05:59:03;11.20;99.90
18229;DHT22;9239;50.932;3.142;2024-02-04T06:01:30;11.20;99.90
18229;DHT22;9239;50.932;3.142;2024-02-04T06:03:58;11.20;99.90
18229;DHT22;9239;50.932;3.142;2024-02-04T06:06:25;11.20;99.90
18229;DHT22;9239;50.932;3.142;2024-02-04T06:08:53;11.20;99.90
18229;DHT22;9239;50.932;3.142;2024-02-04T06:11:20;11.20;99.90
18229;DHT22;9239;50.932;3.142;2024-02-04T06:13:47;11.20;99.90
18229;DHT22;9239;50.932;3.142;2024-02-04T06:16:14;11.20;99.90
18229;DHT22;9239;50.932;3.142;2024-02-04T06:18:42;11.20;99.90
18229;DHT22;9239;50.932;3.142;2024-02-04T06:21:09;11.20;99.90
18229;DHT22;9239;50.932;3.142;2024-02-04T06:23:38;11.20;99.90
18229;DHT22;9239;50.932;3.142;2024-02-04T06:26:06;11.20;99.90
18229;DHT22;9239;50.932;3.142;2024-02-04T06:28:33;11.20;99.90
18229;DHT22;9239;50.932;3.142;2024-02-04T06:31:00;11.20;99.90
18229;DHT22;9239;50.932;3.142;2024-02-04T06:33:27;11.20;99.90
18229;DHT22;9239;50.932;3.142;2024-02-04T06:35:54;11.30;99.90
18229;DHT22;9239;50.932;3.142;2024-02-04T06:38:21;11.30;99.90
18229;DHT22;9239;50.932;3.142;2024-02-04T06:40:48;11.20;99.90
18229;DHT22;9239;50.932;3.142;2024-02-04T06:43:17;11.20;99.90
18229;DHT22;9239;50.932;3.142;2024-02-04T06:45:44;11.30;99.90
18229;DHT22;9239;50.932;3.142;2024-02-04T06:48:11;11.20;99.90
18229;DHT22;9239;50.932;3.142;2024-02-04T06:50:38;11.20;99.90
18229;DHT22;9239;50.932;3.142;2024-02-04T06:53:05;11.30;99.90
18229;DHT22;9239;50.932;3.142;2024-02-04T06:55:32;11.30;99.90
18229;DHT22;9239;50.932;3.142;2024-02-04T06:57:59;11.30;99.90
18229;DHT22;9239;50.932;3.142;2024-02-04T07:00:27;11.30;99.90
18229;DHT22;9239;50.932;3.142;2024-02-04T07:02:54;11.30;99.90
18229;DHT22;9239;50.932;3.142;2024-02-04T07:05:22;11.30;99.90
18229;DHT22;9239;50.932;3.142;2024-02-04T07:07:49;11.30;99.90
18229;DHT22;9239;50.932;3.142;2024-02-04T07:10:16;11.30;99.90
18229;DHT22;9239;50.932;3.142;2024-02-04T07:12:43;11.30;99.90
18229;DHT22;9239;50.932;3.142;2024-02-04T07:15:10;11.30;99.90
18229;DHT22;9239;50.932;3.142;2024-02-04T07:17:39;11.30;99.90
18229;DHT22;9239;50.932;3.142;2024-02-04T07:20:06;11.30;99.90
18229;DHT22;9239;50.932;3.142;2024-02-04T07:22:33;11.30;99.90
18229;DHT22;9239;50.932;3.142;2024-02-04T07:25:01;11.30;99.90
18229;DHT22;9239;50.932;3.142;2024-02-04T07:27:29;11.30;99.90
18229;DHT22;9239;50.932;3.142;2024-02-04T07:29:56;11.30;99.90
18229;DHT22;9239;50.932;3.142;2024-02-04T07:32:23;11.30;99.90
18229;DHT22;9239;50.932;3.142;2024-02-04T07:34:52;11.40;99.90
18229;DHT22;9239;50.932;3.142;2024-02-04T07:37:18;11.30;99.90
18229;DHT22;9239;50.932;3.142;2024-02-04T07:39:45;11.40;99.90
18229;DHT22;9239;50.932;3.142;2024-02-04T07:42:12;11.40;99.90
18229;DHT22;9239;50.932;3.142;2024-02-04T07:44:39;11.30;99.90
18229;DHT22;9239;50.932;3.142;2024-02-04T07:47:06;11.40;99.90
18229;DHT22;9239;50.932;3.142;2024-02-04T07:49:33;11.40;99.90
18229;DHT22;9239;50.932;3.142;2024-02-04T07:52:02;11.40;99.90
18229;DHT22;9239;50.932;3.142;2024-02-04T07:54:29;11.40;99.90
18229;DHT22;9239;50.932;3.142;2024-02-04T07:56:56;11.40;99.90
18229;DHT22;9239;50.932;3.142;2024-02-04T07:59:22;11.40;99.90
18229;DHT22;9239;50.932;3.142;2024-02-04T08:01:49;11.40;99.90
18229;DHT22;9239;50.932;3.142;2024-02-04T08:04:16;11.40;99.90
18229;DHT22;9239;50.932;3.142;2024-02-04T08:06:43;11.50;99.90
18229;DHT22;9239;50.932;3.142;2024-02-04T08:09:11;11.50;99.90
18229;DHT22;9239;50.932;3.142;2024-02-04T08:11:38;11.50;99.90
18229;DHT22;9239;50.932;3.142;2024-02-04T08:14:05;11.50;99.90
18229;DHT22;9239;50.932;3.142;2024-02-04T08:16:32;11.60;99.90
18229;DHT22;9239;50.932;3.142;2024-02-04T08:18:59;11.50;99.90
18229;DHT22;9239;50.932;3.142;2024-02-04T08:21:26;11.60;99.90
18229;DHT22;9239;50.932;3.142;2024-02-04T08:23:57;11.60;99.90
18229;DHT22;9239;50.932;3.142;2024-02-04T08:26:25;11.60;99.90
18229;DHT22;9239;50.932;3.142;2024-02-04T08:28:52;11.60;99.90
18229;DHT22;9239;50.932;3.142;2024-02-04T08:31:19;11.60;99.90
18229;DHT22;9239;50.932;3.142;2024-02-04T08:33:46;11.60;99.90
18229;DHT22;9239;50.932;3.142;2024-02-04T08:36:13;11.60;99.90
18229;DHT22;9239;50.932;3.142;2024-02-04T08:38:41;11.60;99.90
18229;DHT22;9239;50.932;3.142;2024-02-04T08:41:08;11.60;99.90
18229;DHT22;9239;50.932;3.142;2024-02-04T08:43:36;11.60;99.90
18229;DHT22;9239;50.932;3.142;2024-02-04T08:46:04;11.60;99.90
18229;DHT22;9239;50.932;3.142;2024-02-04T08:48:31;11.60;99.90
18229;DHT22;9239;50.932;3.142;2024-02-04T08:50:58;11.60;99.90
18229;DHT22;9239;50.932;3.142;2024-02-04T08:53:25;11.60;99.90
18229;DHT22;9239;50.932;3.142;2024-02-04T08:55:52;11.60;99.90
18229;DHT22;9239;50.932;3.142;2024-02-04T08:58:19;11.60;99.90
18229;DHT22;9239;50.932;3.142;2024-02-04T09:00:48;11.60;99.90
18229;DHT22;9239;50.932;3.142;2024-02-04T09:03:14;11.70;99.90
18229;DHT22;9239;50.932;3.142;2024-02-04T09:05:41;11.80;99.90
18229;DHT22;9239;50.932;3.142;2024-02-04T09:08:08;11.90;99.90
18229;DHT22;9239;50.932;3.142;2024-02-04T09:10:36;11.90;99.90
18229;DHT22;9239;50.932;3.142;2024-02-04T09:13:03;12.10;99.90
18229;DHT22;9239;50.932;3.142;2024-02-04T09:15:30;12.10;99.90
18229;DHT22;9239;50.932;3.142;2024-02-04T09:17:58;12.20;99.90
18229;DHT22;9239;50.932;3.142;2024-02-04T09:20:25;12.20;99.90
18229;DHT22;9239;50.932;3.142;2024-02-04T09:22:52;12.30;99.90
18229;DHT22;9239;50.932;3.142;2024-02-04T09:25:19;12.20;99.90
18229;DHT22;9239;50.932;3.142;2024-02-04T09:27:46;12.30;99.90
18229;DHT22;9239;50.932;3.142;2024-02-04T09:30:13;12.30;99.90
18229;DHT22;9239;50.932;3.142;2024-02-04T09:32:40;12.40;99.90
18229;DHT22;9239;50.932;3.142;2024-02-04T09:35:09;12.50;99.90
18229;DHT22;9239;50.932;3.142;2024-02-04T09:37:36;12.50;99.90
18229;DHT22;9239;50.932;3.142;2024-02-04T09:40:03;12.50;99.90
18229;DHT22;9239;50.932;3.142;2024-02-04T09:42:30;12.50;99.90
18229;DHT22;9239;50.932;3.142;2024-02-04T09:44:58;12.50;99.90
18229;DHT22;9239;50.932;3.142;2024-02-04T09:47:25;12.50;99.90
18229;DHT22;9239;50.932;3.142;2024-02-04T09:49:53;12.40;99.90
18229;DHT22;9239;50.932;3.142;2024-02-04T09:52:29;12.40;99.90
18229;DHT22;9239;50.932;3.142;2024-02-04T09:54:59;12.50;99.90
18229;DHT22;9239;50.932;3.142;2024-02-04T09:57:27;12.50;99.90
18229;DHT22;9239;50.932;3.142;2024-02-04T09:59:55;12.60;99.90
18229;DHT22;9239;50.932;3.142;2024-02-04T10:02:22;12.70;99.90
18229;DHT22;9239;50.932;3.142;2024-02-04T10:04:49;12.70;99.90
18229;DHT22;9239;50.932;3.142;2024-02-04T10:07:16;12.70;99.90
18229;DHT22;9239;50.932;3.142;2024-02-04T10:09:45;12.70;99.90
18229;DHT22;9239;50.932;3.142;2024-02-04T10:12:12;12.70;99.90
18229;DHT22;9239;50.932;3.142;2024-02-04T10:14:39;12.60;99.90
18229;DHT22;9239;50.932;3.142;2024-02-04T10:17:07;12.60;99.90
18229;DHT22;9239;50.932;3.142;2024-02-04T10:19:34;12.60;99.90
18229;DHT22;9239;50.932;3.142;2024-02-04T10:22:02;12.50;99.90
18229;DHT22;9239;50.932;3.142;2024-02-04T10:24:29;12.40;99.90
18229;DHT22;9239;50.932;3.142;2024-02-04T10:26:58;12.40;99.90
18229;DHT22;9239;50.932;3.142;2024-02-04T10:29:25;12.40;99.90
18229;DHT22;9239;50.932;3.142;2024-02-04T10:31:56;12.40;99.90
18229;DHT22;9239;50.932;3.142;2024-02-04T10:34:23;12.30;99.90
18229;DHT22;9239;50.932;3.142;2024-02-04T10:36:50;12.30;99.90
18229;DHT22;9239;50.932;3.142;2024-02-04T10:39:17;12.30;99.90
18229;DHT22;9239;50.932;3.142;2024-02-04T10:41:49;12.30;99.90
18229;DHT22;9239;50.932;3.142;2024-02-04T10:44:21;12.20;99.90
18229;DHT22;9239;50.932;3.142;2024-02-04T10:46:48;12.20;99.90
18229;DHT22;9239;50.932;3.142;2024-02-04T10:49:16;12.20;99.90
18229;DHT22;9239;50.932;3.142;2024-02-04T10:51:45;12.20;99.90
18229;DHT22;9239;50.932;3.142;2024-02-04T10:54:14;12.20;99.90
18229;DHT22;9239;50.932;3.142;2024-02-04T10:56:43;12.20;99.90
18229;DHT22;9239;50.932;3.142;2024-02-04T10:59:10;12.20;99.90
18229;DHT22;9239;50.932;3.142;2024-02-04T11:01:40;12.20;99.90
18229;DHT22;9239;50.932;3.142;2024-02-04T11:04:09;12.20;99.90
18229;DHT22;9239;50.932;3.142;2024-02-04T11:06:38;12.20;99.90
18229;DHT22;9239;50.932;3.142;2024-02-04T11:09:07;12.30;99.90
18229;DHT22;9239;50.932;3.142;2024-02-04T11:11:36;12.20;99.90
18229;DHT22;9239;50.932;3.142;2024-02-04T11:14:06;12.30;99.90
18229;DHT22;9239;50.932;3.142;2024-02-04T11:16:56;12.20;99.90
18229;DHT22;9239;50.932;3.142;2024-02-04T11:19:36;12.20;99.90
18229;DHT22;9239;50.932;3.142;2024-02-04T11:22:32;12.20;99.90
18229;DHT22;9239;50.932;3.142;2024-02-04T11:28:09;12.20;99.90
18229;DHT22;9239;50.932;3.142;2024-02-04T11:30:37;12.20;99.90
18229;DHT22;9239;50.932;3.142;2024-02-04T11:33:06;12.20;99.90
18229;DHT22;9239;50.932;3.142;2024-02-04T11:35:33;12.30;99.90
18229;DHT22;9239;50.932;3.142;2024-02-04T11:38:01;12.30;99.90
18229;DHT22;9239;50.932;3.142;2024-02-04T11:40:34;12.30;99.90
18229;DHT22;9239;50.932;3.142;2024-02-04T11:43:06;12.20;99.90
18229;DHT22;9239;50.932;3.142;2024-02-04T11:45:36;12.20;99.90
18229;DHT22;9239;50.932;3.142;2024-02-04T11:48:07;12.20;99.90
18229;DHT22;9239;50.932;3.142;2024-02-04T11:50:34;12.10;99.90
18229;DHT22;9239;50.932;3.142;2024-02-04T11:53:08;12.00;99.90
18229;DHT22;9239;50.932;3.142;2024-02-04T11:55:36;11.90;99.90
18229;DHT22;9239;50.932;3.142;2024-02-04T11:58:05;11.90;99.90
18229;DHT22;9239;50.932;3.142;2024-02-04T12:00:32;11.80;99.90
18229;DHT22;9239;50.932;3.142;2024-02-04T12:03:00;11.80;99.90
18229;DHT22;9239;50.932;3.142;2024-02-04T12:05:31;11.80;99.90
18229;DHT22;9239;50.932;3.142;2024-02-04T12:07:59;11.80;99.90
18229;DHT22;9239;50.932;3.142;2024-02-04T12:10:28;11.70;99.90
18229;DHT22;9239;50.932;3.142;2024-02-04T12:12:56;11.70;99.90
18229;DHT22;9239;50.932;3.142;2024-02-04T12:15:23;11.80;99.90
18229;DHT22;9239;50.932;3.142;2024-02-04T12:17:50;11.70;99.90
18229;DHT22;9239;50.932;3.142;2024-02-04T12:20:17;11.80;99.90
18229;DHT22;9239;50.932;3.142;2024-02-04T12:22:46;11.80;99.90
18229;DHT22;9239;50.932;3.142;2024-02-04T12:25:14;11.80;99.90
18229;DHT22;9239;50.932;3.142;2024-02-04T12:27:41;11.80;99.90
18229;DHT22;9239;50.932;3.142;2024-02-04T12:30:09;11.80;99.90
18229;DHT22;9239;50.932;3.142;2024-02-04T12:32:36;11.80;99.90
18229;DHT22;9239;50.932;3.142;2024-02-04T12:35:05;11.80;99.90
18229;DHT22;9239;50.932;3.142;2024-02-04T12:37:33;11.80;99.90
18229;DHT22;9239;50.932;3.142;2024-02-04T12:40:01;12.00;99.90
18229;DHT22;9239;50.932;3.142;2024-02-04T12:42:29;12.00;99.90
18229;DHT22;9239;50.932;3.142;2024-02-04T12:44:57;12.00;99.90
18229;DHT22;9239;50.932;3.142;2024-02-04T12:47:24;12.00;99.90
18229;DHT22;9239;50.932;3.142;2024-02-04T12:49:58;12.00;99.90
18229;DHT22;9239;50.932;3.142;2024-02-04T12:52:26;12.10;99.90
18229;DHT22;9239;50.932;3.142;2024-02-04T12:54:53;12.00;99.90
18229;DHT22;9239;50.932;3.142;2024-02-04T12:57:25;12.10;99.90
18229;DHT22;9239;50.932;3.142;2024-02-04T13:00:03;12.10;99.90
18229;DHT22;9239;50.932;3.142;2024-02-04T13:02:31;12.10;99.90
18229;DHT22;9239;50.932;3.142;2024-02-04T13:04:59;12.10;99.90
18229;DHT22;9239;50.932;3.142;2024-02-04T13:07:26;12.10;99.90
18229;DHT22;9239;50.932;3.142;2024-02-04T13:09:58;12.10;99.90
18229;DHT22;9239;50.932;3.142;2024-02-04T13:12:26;12.10;99.90
18229;DHT22;9239;50.932;3.142;2024-02-04T13:14:53;12.10;99.90
18229;DHT22;9239;50.932;3.142;2024-02-04T13:17:20;12.20;99.90
18229;DHT22;9239;50.932;3.142;2024-02-04T13:19:47;12.20;99.90
18229;DHT22;9239;50.932;3.142;2024-02-04T13:22:14;12.20;99.90
18229;DHT22;9239;50.932;3.142;2024-02-04T13:24:41;12.30;99.90
18229;DHT22;9239;50.932;3.142;2024-02-04T13:27:08;12.30;99.90
18229;DHT22;9239;50.932;3.142;2024-02-04T13:29:37;12.30;99.90
18229;DHT22;9239;50.932;3.142;2024-02-04T13:32:04;12.30;99.90
18229;DHT22;9239;50.932;3.142;2024-02-04T13:34:31;12.40;99.90
18229;DHT22;9239;50.932;3.142;2024-02-04T13:36:59;12.40;99.90
18229;DHT22;9239;50.932;3.142;2024-02-04T13:39:27;12.50;99.90
18229;DHT22;9239;50.932;3.142;2024-02-04T13:41:54;12.60;99.90
18229;DHT22;9239;50.932;3.142;2024-02-04T13:44:21;12.60;99.90
18229;DHT22;9239;50.932;3.142;2024-02-04T13:46:49;12.60;99.90
18229;DHT22;9239;50.932;3.142;2024-02-04T13:49:16;12.70;99.90
18229;DHT22;9239;50.932;3.142;2024-02-04T13:51:43;12.70;99.90
18229;DHT22;9239;50.932;3.142;2024-02-04T13:54:10;12.70;99.90
18229;DHT22;9239;50.932;3.142;2024-02-04T13:56:40;12.70;99.90
18229;DHT22;9239;50.932;3.142;2024-02-04T13:59:08;12.80;99.90
18229;DHT22;9239;50.932;3.142;2024-02-04T14:01:34;12.80;99.90
18229;DHT22;9239;50.932;3.142;2024-02-04T14:04:03;12.90;99.90
18229;DHT22;9239;50.932;3.142;2024-02-04T14:06:30;12.90;99.90
18229;DHT22;9239;50.932;3.142;2024-02-04T14:08:57;13.00;99.90
18229;DHT22;9239;50.932;3.142;2024-02-04T14:11:24;12.90;99.90
18229;DHT22;9239;50.932;3.142;2024-02-04T14:13:51;12.90;99.90
18229;DHT22;9239;50.932;3.142;2024-02-04T14:16:18;12.90;99.90
18229;DHT22;9239;50.932;3.142;2024-02-04T14:18:44;12.90;99.90
18229;DHT22;9239;50.932;3.142;2024-02-04T14:21:13;12.90;99.90
18229;DHT22;9239;50.932;3.142;2024-02-04T14:23:40;12.90;99.90
18229;DHT22;9239;50.932;3.142;2024-02-04T14:26:15;12.80;99.90
18229;DHT22;9239;50.932;3.142;2024-02-04T14:28:42;12.80;99.90
18229;DHT22;9239;50.932;3.142;2024-02-04T14:31:09;12.80;99.90
18229;DHT22;9239;50.932;3.142;2024-02-04T14:33:36;12.70;99.90
18229;DHT22;9239;50.932;3.142;2024-02-04T14:36:03;12.70;99.90
18229;DHT22;9239;50.932;3.142;2024-02-04T14:38:32;12.70;99.90
18229;DHT22;9239;50.932;3.142;2024-02-04T14:40:59;12.70;99.90
18229;DHT22;9239;50.932;3.142;2024-02-04T14:43:26;12.70;99.90
18229;DHT22;9239;50.932;3.142;2024-02-04T14:45:53;12.70;99.90
18229;DHT22;9239;50.932;3.142;2024-02-04T14:48:20;12.70;99.90
18229;DHT22;9239;50.932;3.142;2024-02-04T14:50:47;12.60;99.90
18229;DHT22;9239;50.932;3.142;2024-02-04T14:53:14;12.60;99.90
18229;DHT22;9239;50.932;3.142;2024-02-04T14:55:42;12.50;99.90
18229;DHT22;9239;50.932;3.142;2024-02-04T14:58:10;12.50;99.90
18229;DHT22;9239;50.932;3.142;2024-02-04T15:00:36;12.50;99.90
18229;DHT22;9239;50.932;3.142;2024-02-04T15:03:04;12.50;99.90
18229;DHT22;9239;50.932;3.142;2024-02-04T15:05:31;12.40;99.90
18229;DHT22;9239;50.932;3.142;2024-02-04T15:07:58;12.40;99.90
18229;DHT22;9239;50.932;3.142;2024-02-04T15:10:24;12.40;99.90
18229;DHT22;9239;50.932;3.142;2024-02-04T15:12:53;12.40;99.90
18229;DHT22;9239;50.932;3.142;2024-02-04T15:15:21;12.30;99.90
18229;DHT22;9239;50.932;3.142;2024-02-04T15:17:49;12.30;99.90
18229;DHT22;9239;50.932;3.142;2024-02-04T15:20:17;12.30;99.90
18229;DHT22;9239;50.932;3.142;2024-02-04T15:22:45;12.30;99.90
18229;DHT22;9239;50.932;3.142;2024-02-04T15:25:13;12.40;99.90
18229;DHT22;9239;50.932;3.142;2024-02-04T15:27:43;12.40;99.90
18229;DHT22;9239;50.932;3.142;2024-02-04T15:30:14;12.40;99.90
18229;DHT22;9239;50.932;3.142;2024-02-04T15:32:41;12.40;99.90
18229;DHT22;9239;50.932;3.142;2024-02-04T15:35:09;12.30;99.90
18229;DHT22;9239;50.932;3.142;2024-02-04T15:37:37;12.30;99.90
18229;DHT22;9239;50.932;3.142;2024-02-04T15:40:05;12.30;99.90
18229;DHT22;9239;50.932;3.142;2024-02-04T15:42:32;12.30;99.90
18229;DHT22;9239;50.932;3.142;2024-02-04T15:44:59;12.40;99.90
18229;DHT22;9239;50.932;3.142;2024-02-04T15:47:30;12.40;99.90
18229;DHT22;9239;50.932;3.142;2024-02-04T15:49:58;12.40;99.90
18229;DHT22;9239;50.932;3.142;2024-02-04T15:52:25;12.30;99.90